Terminal Aerodrome Forecast
Issued by NWS Tulsa, OK

Home | Current Version | Previous Version | Text Only | Print | Product List | Glossary On
Versions: 1 2 3 4 5 6 7 8 9 10 11 12 13 14 15 16 17 18 19 20 21
000
FTUS44 KTSA 020500
TAFFSM
TAF
KFSM 020537Z 0206/0306 34006KT P6SM SCT012 OVC025
      TEMPO 0206/0210 4SM BR BKN012
     FM021000 06006KT 4SM BR OVC010
     FM021600 08006KT 5SM BR OVC010=

USA.gov is the U.S. government's official web portal to all federal, state and local government web resources and services.